createdAt,value
2022-07-30T01:33:34.522Z,1.15
2022-07-30T01:46:21.831Z,1.75
2022-07-30T03:01:05.328Z,0.80
2022-07-30T03:07:30.542Z,1.10
2022-07-30T04:05:37.571Z,1.27
2022-07-30T04:10:46.877Z,1.58
2022-07-30T04:16:39.641Z,1.20
2022-07-30T04:21:36.200Z,1.30
2022-07-30T04:26:46.872Z,2.03
2022-07-30T04:43:59.989Z,0.88
2022-07-30T04:49:14.777Z,1.00
2022-07-30T05:00:35.731Z,1.00
2022-07-30T05:23:35.460Z,1.55
2022-07-30T05:29:42.742Z,1.20
2022-07-30T05:35:25.234Z,0.85
2022-07-30T05:40:38.194Z,1.08
2022-07-30T05:51:29.600Z,1.30
2022-07-30T05:56:37.486Z,0.88
2022-07-30T06:01:48.304Z,1.80
2022-07-30T06:06:56.953Z,1.08
2022-07-30T06:12:01.733Z,0.82
2022-07-30T06:17:04.698Z,2.55
2022-07-30T06:48:55.337Z,0.98
2022-07-30T06:53:57.720Z,1.20
2022-07-30T06:59:27.736Z,1.10
2022-07-30T07:04:48.933Z,1.50
2022-07-30T07:09:51.823Z,1.63
2022-07-30T07:15:14.494Z,1.63
2022-07-30T07:20:16.726Z,0.95
2022-07-30T07:25:28.697Z,2.20
2022-07-30T07:30:31.076Z,1.58
2022-07-30T07:35:49.190Z,1.15
2022-07-30T07:41:01.251Z,1.10
2022-07-30T07:46:04.979Z,1.23
2022-07-30T07:51:09.561Z,1.13
2022-07-30T07:56:14.157Z,0.95
2022-07-30T08:01:17.336Z,0.50
2022-07-30T08:06:38.131Z,1.02
2022-07-30T08:12:03.282Z,0.90
2022-07-30T08:17:28.812Z,0.40
2022-07-30T08:22:54.313Z,0.60
2022-07-30T08:28:35.449Z,0.47
2022-07-30T08:33:34.083Z,0.80
2022-07-30T08:38:38.497Z,1.08
2022-07-30T08:43:43.152Z,0.70
2022-07-30T08:48:47.098Z,0.80
2022-07-30T08:53:51.628Z,0.68
2022-07-30T08:58:55.305Z,0.60
2022-07-30T09:03:57.824Z,0.93
2022-07-30T09:09:04.120Z,0.93
2022-07-30T09:14:14.079Z,0.98
2022-07-30T09:19:20.079Z,0.95
2022-07-30T09:24:22.518Z,0.52
2022-07-30T09:30:03.216Z,1.00
2022-07-30T09:35:50.313Z,0.80
2022-07-30T09:41:37.867Z,0.60
2022-07-30T09:46:51.684Z,0.40
2022-07-30T09:52:01.370Z,0.55
2022-07-30T09:57:15.934Z,0.60
2022-07-30T10:02:34.220Z,0.45
2022-07-30T10:07:59.340Z,0.35
2022-07-30T10:13:04.857Z,0.30
2022-07-30T10:18:12.076Z,0.30
2022-07-30T10:23:35.457Z,0.38
2022-07-30T10:28:57.324Z,0.40
2022-07-30T10:34:00.451Z,0.20
2022-07-30T10:39:03.248Z,0.30
2022-07-30T10:44:05.663Z,0.15
2022-07-30T10:49:19.034Z,0.20
2022-07-30T10:54:39.449Z,0.10
2022-07-30T11:00:07.904Z,0.20
2022-07-30T11:05:45.603Z,1.13
2022-07-30T11:16:01.732Z,0.10
2022-07-30T11:21:22.531Z,0.32
2022-07-30T11:32:56.192Z,0.20
2022-07-30T11:38:18.825Z,0.30
2022-07-30T11:50:44.692Z,0.40
2022-07-30T11:56:14.777Z,0.30
2022-07-30T12:01:42.363Z,0.20
2022-07-30T12:06:57.664Z,0.05
2022-07-30T12:12:11.981Z,0.15
2022-07-30T12:22:34.248Z,0.47
2022-07-30T12:27:52.032Z,0.13
2022-07-30T12:32:56.618Z,0.10
2022-07-30T12:38:04.382Z,0.20
2022-07-30T12:43:13.853Z,0.25
2022-07-30T12:48:17.676Z,0.10
2022-07-30T12:53:29.026Z,0.30
2022-07-30T12:58:37.653Z,0.10
2022-07-30T13:05:10.982Z,0.20
2022-07-30T13:11:07.907Z,0.30
2022-07-30T13:16:44.420Z,0.30
2022-07-30T13:33:37.563Z,0.32
2022-07-30T13:39:10.531Z,0.47
2022-07-30T13:44:14.173Z,0.30
2022-07-30T13:49:26.372Z,0.20
2022-07-30T13:54:38.146Z,0.45
2022-07-30T13:59:50.886Z,0.28
2022-07-30T14:05:18.576Z,0.57
2022-07-30T14:16:45.777Z,0.40
2022-07-30T14:22:01.138Z,0.20
2022-07-30T14:27:34.140Z,0.38
2022-07-30T14:33:09.311Z,0.35
2022-07-30T14:38:12.281Z,0.50
2022-07-30T14:50:07.976Z,0.40
2022-07-30T14:55:18.289Z,0.43
2022-07-30T15:00:25.792Z,0.52
2022-07-30T15:05:38.396Z,0.30
2022-07-30T15:10:51.850Z,0.40
2022-07-30T15:15:55.267Z,0.25
2022-07-30T15:21:04.033Z,0.40
2022-07-30T15:26:13.955Z,0.30
2022-07-30T15:31:37.102Z,0.45
2022-07-30T15:36:50.267Z,0.20
2022-07-30T15:41:57.975Z,2.30
2022-07-30T15:47:41.266Z,1.35
2022-07-30T15:52:54.719Z,1.52
2022-07-30T15:58:45.281Z,0.40
2022-07-30T16:05:01.380Z,0.43
2022-07-30T16:10:08.906Z,0.50
2022-07-30T16:15:25.878Z,0.50
2022-07-30T16:38:42.141Z,0.50
2022-07-30T17:03:45.368Z,0.52
2022-07-30T17:09:54.442Z,0.40
2022-07-30T17:26:24.142Z,0.50
2022-07-30T17:48:57.561Z,0.40
2022-07-30T17:54:48.191Z,1.23
2022-07-30T18:00:23.475Z,0.50
2022-07-30T18:05:43.550Z,1.00
2022-07-30T18:11:13.805Z,0.65
2022-07-30T18:16:17.032Z,0.73
2022-07-30T18:21:24.317Z,0.68
2022-07-30T18:26:49.556Z,0.70
2022-07-30T18:32:09.029Z,1.13
2022-07-30T18:37:12.447Z,0.80
2022-07-30T18:42:31.980Z,0.85
2022-07-30T18:47:40.796Z,1.10
2022-07-30T19:03:31.417Z,0.57
2022-07-30T19:08:51.731Z,1.02
2022-07-30T19:14:01.428Z,1.00
2022-07-30T19:19:12.489Z,0.82
2022-07-30T19:24:18.271Z,1.10
2022-07-30T19:29:32.231Z,0.93
2022-07-30T19:35:15.148Z,1.38
2022-07-30T19:40:22.190Z,1.67
2022-07-30T19:45:47.465Z,2.00
2022-07-30T19:51:20.565Z,2.20
2022-07-30T19:56:37.708Z,2.15
2022-07-30T20:01:55.653Z,1.90
2022-07-30T20:07:50.069Z,1.88
2022-07-30T20:13:06.419Z,1.30
2022-07-30T20:18:28.824Z,2.05
2022-07-30T20:23:39.985Z,1.60
2022-07-30T20:29:03.862Z,2.20
2022-07-30T20:39:39.753Z,1.98
2022-07-30T20:45:02.765Z,2.42
2022-07-30T20:56:04.987Z,1.98
2022-07-30T21:01:35.295Z,1.80
2022-07-30T21:06:59.677Z,3.25
2022-07-30T21:12:08.186Z,2.58
2022-07-30T21:17:31.026Z,2.75
2022-07-30T21:22:35.647Z,2.40
2022-07-30T21:46:26.961Z,1.67
2022-07-30T21:58:49.380Z,1.55
2022-07-30T22:04:23.972Z,1.17
2022-07-30T22:41:29.029Z,2.17
2022-07-30T22:46:45.386Z,2.05
2022-07-30T22:52:27.472Z,2.50
2022-07-30T23:18:45.248Z,3.28
2022-07-30T23:39:18.037Z,2.47
2022-07-30T23:50:33.428Z,2.13
